Time;durP1;ratioP1;P1;durP2;ratioP2;P2;SDS_P1;SDS_P2;PMS_P1;PMS_P2;Temp;Humidity;BMP_temperature;BMP_pressure;BME280_temperature;BME280_humidity;BME280_pressure;Samples;Min_cycle;Max_cycle;Signal;HPM_P1;HPM_P2
2022/04/17 00:00:22;;;;;;;8.70;5.30;;;8.70;56.30;;;;;;5056747;28;20503;-81
2022/04/17 00:02:49;;;;;;;7.20;4.20;;;8.70;56.30;;;;;;5055766;28;20456;-83
2022/04/17 00:05:16;;;;;;;9.23;5.60;;;8.70;56.30;;;;;;5055945;28;20556;-82
2022/04/17 00:07:44;;;;;;;8.90;4.97;;;8.70;56.40;;;;;;5056532;28;20462;-82
2022/04/17 00:10:12;;;;;;;8.33;5.30;;;8.60;56.60;;;;;;5056044;28;20829;-83
2022/04/17 00:12:39;;;;;;;6.83;4.53;;;8.60;56.80;;;;;;5056283;28;20457;-82
2022/04/17 00:15:09;;;;;;;8.90;6.00;;;8.60;56.80;;;;;;5055618;28;20456;-82
2022/04/17 00:17:37;;;;;;;10.03;5.47;;;8.50;57.00;;;;;;5056150;28;20448;-82
2022/04/17 00:20:05;;;;;;;7.83;4.63;;;8.40;57.50;;;;;;5055979;28;20457;-82
2022/04/17 00:22:32;;;;;;;7.73;4.60;;;8.30;59.20;;;;;;5050178;28;20554;-82
2022/04/17 00:25:01;;;;;;;8.67;5.37;;;8.20;60.00;;;;;;5056183;28;20464;-82
2022/04/17 00:27:28;;;;;;;9.63;5.17;;;8.10;62.80;;;;;;5061986;28;20461;-84
2022/04/17 00:29:55;;;;;;;8.57;5.00;;;8.00;64.70;;;;;;5061072;28;21048;-83
2022/04/17 00:32:22;;;;;;;7.60;5.23;;;7.80;66.40;;;;;;5060328;28;20463;-83
2022/04/17 00:34:48;;;;;;;6.07;4.30;;;7.70;68.20;;;;;;5059493;28;20452;-83
2022/04/17 00:37:15;;;;;;;6.20;3.97;;;7.70;70.90;;;;;;5059837;28;20488;-83
2022/04/17 00:39:42;;;;;;;7.63;4.60;;;7.60;73.40;;;;;;5057526;28;21095;-83
2022/04/17 00:42:10;;;;;;;9.90;4.93;;;7.50;73.30;;;;;;5057210;28;20456;-83
2022/04/17 00:44:37;;;;;;;6.70;3.53;;;7.50;76.40;;;;;;5057096;28;20486;-83
2022/04/17 00:47:05;;;;;;;7.00;4.03;;;7.40;79.00;;;;;;5057855;28;20881;-83
2022/04/17 00:49:32;;;;;;;5.60;3.80;;;7.30;79.90;;;;;;5056331;28;20539;-83
2022/04/17 00:51:59;;;;;;;8.00;3.87;;;7.20;83.10;;;;;;5056927;28;21128;-84
2022/04/17 00:54:29;;;;;;;7.53;4.00;;;7.10;90.90;;;;;;5055606;28;20456;-83
2022/04/17 00:56:57;;;;;;;9.87;4.77;;;6.90;94.30;;;;;;5056121;28;20464;-82
2022/04/17 00:59:25;;;;;;;7.67;5.00;;;6.90;99.80;;;;;;5055883;28;20514;-83
2022/04/17 01:01:53;;;;;;;8.00;4.07;;;6.90;99.90;;;;;;5057145;28;20483;-82
2022/04/17 01:04:20;;;;;;;7.27;4.80;;;6.80;99.90;;;;;;5055355;28;20448;-83
2022/04/17 01:06:47;;;;;;;7.30;4.57;;;6.60;99.90;;;;;;5055176;28;20459;-82
2022/04/17 01:09:15;;;;;;;5.60;4.20;;;6.60;99.90;;;;;;5055861;28;20884;-82
2022/04/17 01:11:42;;;;;;;8.70;4.87;;;6.50;99.90;;;;;;5056631;28;20443;-83
2022/04/17 01:14:12;;;;;;;7.13;4.40;;;6.50;99.90;;;;;;5055393;28;20460;-83
2022/04/17 01:16:40;;;;;;;7.93;4.23;;;6.40;99.90;;;;;;5055904;28;20472;-82
2022/04/17 01:19:14;;;;;;;6.47;4.47;;;6.30;99.90;;;;;;5056375;28;20863;-83
2022/04/17 01:21:43;;;;;;;7.27;4.37;;;6.20;99.90;;;;;;5056330;28;20494;-83
2022/04/17 01:26:57;;;;;;;6.40;4.40;;;6.10;99.90;;;;;;5053652;28;20439;-82
2022/04/17 01:29:26;;;;;;;5.80;4.00;;;6.10;99.90;;;;;;5056384;28;20464;-83
2022/04/17 01:31:53;;;;;;;8.90;5.23;;;6.00;99.90;;;;;;5056241;28;20871;-83
2022/04/17 01:34:21;;;;;;;6.70;4.57;;;5.90;99.90;;;;;;5056646;28;20460;-83
2022/04/17 01:36:50;;;;;;;6.33;4.27;;;5.90;99.90;;;;;;5057448;28;20526;-83
2022/04/17 01:39:18;;;;;;;7.13;5.10;;;5.90;99.90;;;;;;5057786;28;20485;-83
2022/04/17 01:41:45;;;;;;;7.63;4.60;;;5.80;99.90;;;;;;5058423;28;20458;-83
2022/04/17 01:44:12;;;;;;;6.17;4.60;;;5.80;99.90;;;;;;5059519;28;20985;-83
2022/04/17 01:46:38;;;;;;;6.90;4.07;;;5.70;99.90;;;;;;5060098;28;20833;-82
2022/04/17 01:49:05;;;;;;;7.00;4.60;;;5.60;99.90;;;;;;5071240;28;20480;-81
2022/04/17 01:51:37;;;;;;;6.10;4.57;;;5.60;99.90;;;;;;5065542;28;20490;-82
2022/04/17 01:54:05;;;;;;;7.00;4.83;;;5.60;99.90;;;;;;5055646;28;20444;-82
2022/04/17 01:56:32;;;;;;;7.93;4.23;;;5.50;99.90;;;;;;5056061;28;20459;-83
2022/04/17 01:58:59;;;;;;;5.53;4.27;;;5.50;99.90;;;;;;5056371;28;20477;-82
2022/04/17 02:01:26;;;;;;;7.33;4.70;;;5.40;99.90;;;;;;5069616;28;20581;-83
2022/04/17 02:03:52;;;;;;;6.93;4.90;;;5.40;99.90;;;;;;5061641;28;20538;-83
2022/04/17 02:06:19;;;;;;;5.87;4.57;;;5.30;99.90;;;;;;5061797;28;20456;-83
2022/04/17 02:08:47;;;;;;;6.00;4.40;;;5.30;99.90;;;;;;5060850;28;20819;-82
2022/04/17 02:11:15;;;;;;;10.80;5.83;;;5.30;99.90;;;;;;5061709;28;20496;-83
2022/04/17 02:13:42;;;;;;;7.13;5.13;;;5.20;99.90;;;;;;5067922;28;20549;-83
2022/04/17 02:16:09;;;;;;;7.50;5.60;;;5.20;99.90;;;;;;5063516;28;20457;-83
2022/04/17 02:18:36;;;;;;;7.83;4.63;;;5.10;99.90;;;;;;5063302;28;20497;-83
2022/04/17 02:21:03;;;;;;;7.93;5.30;;;5.10;99.90;;;;;;5060667;28;20434;-81
2022/04/17 02:23:29;;;;;;;7.20;5.00;;;5.00;99.90;;;;;;5056942;28;20454;-84
2022/04/17 02:25:56;;;;;;;6.80;5.10;;;5.00;99.90;;;;;;5071826;28;20460;-83
2022/04/17 02:28:24;;;;;;;7.53;4.87;;;5.00;99.90;;;;;;5078282;28;20505;-82
2022/04/17 02:30:51;;;;;;;9.47;5.50;;;5.00;99.90;;;;;;5078638;28;20478;-82
2022/04/17 02:33:18;;;;;;;9.23;5.13;;;4.90;99.90;;;;;;5057659;28;21059;-81
2022/04/17 02:35:45;;;;;;;9.23;5.20;;;4.80;99.90;;;;;;5058078;28;20491;-82
2022/04/17 02:38:14;;;;;;;7.00;4.40;;;4.80;99.90;;;;;;5059548;28;20477;-83
2022/04/17 02:40:42;;;;;;;7.67;5.23;;;4.80;99.90;;;;;;5065061;28;20479;-83
2022/04/17 02:43:09;;;;;;;7.87;4.67;;;4.70;99.90;;;;;;5059241;28;20454;-83
2022/04/17 02:45:37;;;;;;;6.07;4.80;;;4.70;99.90;;;;;;5061216;28;20458;-84
2022/04/17 02:48:05;;;;;;;8.20;5.17;;;4.70;99.90;;;;;;5061715;28;21010;-83
2022/04/17 02:50:32;;;;;;;8.17;4.93;;;4.60;99.90;;;;;;5061264;28;21008;-84
2022/04/17 02:52:59;;;;;;;6.43;4.83;;;4.60;99.90;;;;;;5061251;28;20453;-82
2022/04/17 02:55:25;;;;;;;6.23;4.40;;;4.60;99.90;;;;;;5061010;28;20461;-83
2022/04/17 02:57:54;;;;;;;7.87;5.07;;;4.50;99.90;;;;;;5060595;28;20471;-84
2022/04/17 03:00:21;;;;;;;7.43;4.57;;;4.50;99.90;;;;;;5060579;28;20527;-84
2022/04/17 03:05:37;;;;;;;7.90;5.37;;;4.40;99.90;;;;;;5061091;28;20556;-82
2022/04/17 03:08:05;;;;;;;8.03;4.80;;;4.40;99.90;;;;;;5059749;28;20507;-81
2022/04/17 03:10:32;;;;;;;7.70;5.20;;;4.30;99.90;;;;;;5059779;28;20528;-83
2022/04/17 03:12:59;;;;;;;6.23;4.30;;;4.40;99.90;;;;;;5057590;28;20471;-80
2022/04/17 03:15:26;;;;;;;10.33;4.73;;;4.30;99.90;;;;;;5056999;28;20516;-83
2022/04/17 03:17:55;;;;;;;7.57;5.20;;;4.30;99.90;;;;;;5056829;28;20483;-81
2022/04/17 03:20:22;;;;;;;9.23;5.90;;;4.20;99.90;;;;;;5057718;28;20978;-83
2022/04/17 03:22:49;;;;;;;8.50;6.00;;;4.20;99.90;;;;;;5058130;28;20439;-83
2022/04/17 03:25:16;;;;;;;9.07;5.60;;;4.20;99.90;;;;;;5057451;28;20444;-83
2022/04/17 03:27:46;;;;;;;7.93;5.47;;;4.10;99.90;;;;;;5058217;28;20506;-83
2022/04/17 03:30:14;;;;;;;8.77;6.07;;;4.10;99.90;;;;;;5057981;28;20461;-83
2022/04/17 03:32:42;;;;;;;8.20;5.73;;;4.10;99.90;;;;;;5057411;28;20464;-84
2022/04/17 03:35:10;;;;;;;8.43;6.10;;;4.10;99.90;;;;;;5057822;28;20539;-81
2022/04/17 03:37:37;;;;;;;9.00;6.47;;;4.10;99.90;;;;;;5058213;28;20448;-84
2022/04/17 03:40:05;;;;;;;9.70;6.07;;;4.00;99.90;;;;;;5058599;28;20916;-83
2022/04/17 03:42:32;;;;;;;9.10;6.57;;;3.90;99.90;;;;;;5057858;28;20454;-83
2022/04/17 03:44:59;;;;;;;10.20;6.53;;;3.90;99.90;;;;;;5057756;28;20466;-83
2022/04/17 03:47:26;;;;;;;8.70;6.40;;;3.90;99.90;;;;;;5057383;28;20508;-82
2022/04/17 03:49:53;;;;;;;8.87;5.90;;;3.80;99.90;;;;;;5057138;28;20831;-83
2022/04/17 03:52:21;;;;;;;10.30;5.80;;;3.80;99.90;;;;;;5057924;28;20961;-83
2022/04/17 03:54:48;;;;;;;8.60;6.27;;;3.80;99.90;;;;;;5057178;28;20832;-82
2022/04/17 03:57:15;;;;;;;8.93;6.40;;;3.80;99.90;;;;;;5057983;28;20937;-82
2022/04/17 03:59:41;;;;;;;7.37;5.20;;;3.70;99.90;;;;;;5061535;28;20481;-83
2022/04/17 04:02:08;;;;;;;10.50;6.60;;;3.70;99.90;;;;;;5063119;28;20507;-83
2022/04/17 04:04:36;;;;;;;12.27;6.60;;;3.70;99.90;;;;;;5072448;28;20474;-81
2022/04/17 04:07:03;;;;;;;9.67;7.20;;;3.70;99.90;;;;;;5064747;28;20552;-82
2022/04/17 04:09:31;;;;;;;9.33;5.57;;;3.60;99.90;;;;;;5061575;28;20806;-83
2022/04/17 04:11:58;;;;;;;9.40;6.00;;;3.60;99.90;;;;;;5053219;28;20800;-83
2022/04/17 04:14:25;;;;;;;8.43;5.60;;;3.50;99.90;;;;;;5057761;28;20455;-82
2022/04/17 04:16:53;;;;;;;11.20;6.87;;;3.50;99.90;;;;;;5056915;28;20456;-80
2022/04/17 04:19:20;;;;;;;6.97;5.37;;;3.50;99.90;;;;;;5055568;28;20486;-83
2022/04/17 04:21:49;;;;;;;9.17;6.67;;;3.50;99.90;;;;;;5055164;28;20503;-82
2022/04/17 04:24:19;;;;;;;7.37;5.50;;;3.40;99.90;;;;;;5054644;28;20460;-82
2022/04/17 04:28:32;;;;;;;8.53;5.57;;;3.50;99.90;;;;;;5055500;28;20456;-83
2022/04/17 04:29:35;;;;;;;8.70;5.73;;;3.40;99.90;;;;;;5054807;28;20461;-83
2022/04/17 04:32:02;;;;;;;9.20;6.17;;;3.40;99.90;;;;;;5055590;28;20517;-81
2022/04/17 04:34:29;;;;;;;8.27;5.50;;;3.30;99.90;;;;;;5054353;28;20457;-82
2022/04/17 04:36:56;;;;;;;11.67;6.20;;;3.30;99.90;;;;;;5056690;28;20460;-80
2022/04/17 04:39:23;;;;;;;6.57;4.87;;;3.30;99.90;;;;;;5056045;28;20486;-81
2022/04/17 04:41:56;;;;;;;7.13;5.50;;;3.30;99.90;;;;;;5056113;28;21045;-81
2022/04/17 04:44:25;;;;;;;7.30;5.80;;;3.30;99.90;;;;;;5042833;28;20427;-82
2022/04/17 04:46:52;;;;;;;10.13;5.87;;;3.30;99.90;;;;;;5065899;28;20535;-82
2022/04/17 04:49:30;;;;;;;8.37;5.53;;;3.30;99.90;;;;;;5067594;28;21192;-81
2022/04/17 04:51:57;;;;;;;7.40;5.07;;;3.30;99.90;;;;;;5063453;28;20501;-80
2022/04/17 04:54:25;;;;;;;9.00;4.93;;;3.30;99.90;;;;;;5054487;28;20968;-81
2022/04/17 04:56:53;;;;;;;7.27;4.77;;;3.30;99.90;;;;;;5054802;28;20543;-80
2022/04/17 04:59:20;;;;;;;6.10;4.33;;;3.30;99.90;;;;;;5054242;28;20895;-80
2022/04/17 05:01:47;;;;;;;7.20;5.03;;;3.30;99.90;;;;;;5053876;28;21209;-81
2022/04/17 05:04:14;;;;;;;7.80;4.80;;;3.40;99.90;;;;;;5053221;28;20455;-80
2022/04/17 05:06:41;;;;;;;7.83;5.30;;;3.40;99.90;;;;;;5053834;28;20543;-81
2022/04/17 05:09:08;;;;;;;7.20;5.00;;;3.40;99.90;;;;;;5053206;28;20517;-81
2022/04/17 05:11:38;;;;;;;6.57;4.57;;;3.40;99.90;;;;;;5052670;28;20456;-81
2022/04/17 05:14:07;;;;;;;7.40;5.07;;;3.50;99.90;;;;;;5052393;28;20491;-80
2022/04/17 05:16:35;;;;;;;6.00;4.43;;;3.60;99.90;;;;;;5052988;28;20457;-82
2022/04/17 05:21:46;;;;;;;12.00;5.70;;;3.80;99.90;;;;;;5052605;28;20502;-81
2022/04/17 05:24:13;;;;;;;13.67;7.17;;;3.80;99.90;;;;;;5052349;28;20452;-80
2022/04/17 05:26:40;;;;;;;6.30;4.70;;;3.90;99.90;;;;;;5052575;28;20455;-78
2022/04/17 05:29:08;;;;;;;7.70;4.90;;;3.90;99.90;;;;;;5052374;28;20478;-78
2022/04/17 05:31:35;;;;;;;6.10;4.80;;;4.00;99.90;;;;;;5054890;28;20550;-79
2022/04/17 05:34:02;;;;;;;5.53;4.50;;;4.10;99.90;;;;;;5146847;22;20903;-78
2022/04/17 05:36:29;;;;;;;8.27;4.80;;;4.20;99.90;;;;;;5076028;28;20841;-80
2022/04/17 05:38:56;;;;;;;6.00;4.73;;;4.30;99.90;;;;;;5068628;28;20481;-78
2022/04/17 05:41:24;;;;;;;8.57;4.83;;;4.40;99.90;;;;;;5076060;28;20491;-79
2022/04/17 05:43:51;;;;;;;7.20;5.20;;;4.50;99.90;;;;;;5071109;28;20484;-78
2022/04/17 05:46:21;;;;;;;8.50;6.13;;;4.60;99.90;;;;;;5075199;28;20450;-79
2022/04/17 05:48:48;;;;;;;7.43;5.83;;;4.70;99.90;;;;;;5074380;28;20474;-80
2022/04/17 05:51:15;;;;;;;9.43;5.07;;;4.80;99.90;;;;;;5073235;28;20455;-79
2022/04/17 05:53:42;;;;;;;10.10;5.63;;;4.90;99.90;;;;;;5069532;28;20851;-79
2022/04/17 05:56:09;;;;;;;9.20;5.70;;;5.00;99.90;;;;;;5079912;28;20449;-79
2022/04/17 05:58:36;;;;;;;6.13;4.63;;;5.00;99.90;;;;;;5076207;28;20528;-80
2022/04/17 06:01:11;;;;;;;11.63;6.93;;;5.10;99.90;;;;;;5076393;28;20465;-79
2022/04/17 06:03:39;;;;;;;9.80;5.37;;;5.30;99.90;;;;;;5074862;28;20478;-80
2022/04/17 06:06:06;;;;;;;8.77;6.03;;;5.40;99.90;;;;;;5066269;28;20571;-81
2022/04/17 06:08:33;;;;;;;10.60;6.50;;;5.50;99.90;;;;;;5075952;28;20450;-81
2022/04/17 06:11:00;;;;;;;8.47;6.40;;;5.70;99.90;;;;;;5074785;28;20455;-80
2022/04/17 06:13:37;;;;;;;16.73;7.27;;;5.80;99.90;;;;;;5071349;28;20461;-80
2022/04/17 06:16:05;;;;;;;12.50;5.93;;;5.90;99.90;;;;;;5074273;28;20454;-81
2022/04/17 06:18:31;;;;;;;8.50;5.93;;;6.00;99.90;;;;;;5069697;28;20454;-80
2022/04/17 06:21:00;;;;;;;8.97;5.90;;;6.10;99.90;;;;;;5076483;28;20461;-80
2022/04/17 06:23:27;;;;;;;10.30;6.20;;;6.20;99.90;;;;;;5073818;28;20455;-80
2022/04/17 06:25:53;;;;;;;9.33;6.13;;;6.30;99.90;;;;;;5074518;28;20454;-79
2022/04/17 06:28:20;;;;;;;10.20;6.70;;;6.40;99.90;;;;;;5075249;28;20456;-80
2022/04/17 06:30:47;;;;;;;9.33;6.17;;;6.50;99.90;;;;;;5074882;28;20849;-80
2022/04/17 06:33:14;;;;;;;10.33;6.10;;;6.60;99.90;;;;;;5074419;28;20482;-78
2022/04/17 06:35:41;;;;;;;4.90;3.70;;;6.70;99.90;;;;;;5073562;28;20845;-80
2022/04/17 06:38:10;;;;;;;6.50;3.90;;;6.90;99.90;;;;;;5075065;28;20837;-79
2022/04/17 06:40:38;;;;;;;5.17;3.00;;;7.00;99.90;;;;;;5075471;28;20504;-81
2022/04/17 06:43:07;;;;;;;7.43;3.73;;;7.30;99.90;;;;;;5075090;28;20498;-80
2022/04/17 06:45:36;;;;;;;7.47;3.80;;;7.50;99.90;;;;;;5075016;28;20478;-81
2022/04/17 06:48:15;;;;;;;5.63;3.10;;;7.70;99.90;;;;;;5073055;28;20454;-80
2022/04/17 06:50:42;;;;;;;4.10;2.30;;;7.90;99.90;;;;;;5074224;28;20450;-80
2022/04/17 06:53:11;;;;;;;6.50;3.40;;;8.10;99.90;;;;;;5079969;28;20454;-81
2022/04/17 06:55:38;;;;;;;4.60;2.87;;;8.20;99.90;;;;;;5091941;28;20542;-82
2022/04/17 06:58:07;;;;;;;8.30;3.07;;;8.40;99.90;;;;;;5092014;28;20451;-82
2022/04/17 07:00:35;;;;;;;4.00;2.70;;;8.60;99.90;;;;;;5093734;28;20462;-81
2022/04/17 07:03:02;;;;;;;4.30;2.60;;;8.80;99.90;;;;;;5088308;28;20480;-81
2022/04/17 07:05:28;;;;;;;3.87;2.20;;;9.00;99.90;;;;;;5083117;28;20477;-82
2022/04/17 07:07:59;;;;;;;5.60;2.90;;;9.10;99.90;;;;;;5078802;28;20470;-81
2022/04/17 07:10:28;;;;;;;4.83;2.50;;;9.30;99.90;;;;;;5079621;28;20459;-81
2022/04/17 07:12:56;;;;;;;3.83;2.53;;;9.40;99.90;;;;;;5079474;28;20455;-81
2022/04/17 07:15:24;;;;;;;5.93;2.33;;;9.60;99.90;;;;;;5078458;28;20567;-82
2022/04/17 07:17:52;;;;;;;3.70;2.30;;;9.80;99.90;;;;;;5075926;28;21019;-81
2022/04/17 07:20:20;;;;;;;3.60;2.30;;;10.10;99.90;;;;;;5076916;28;20443;-82
2022/04/17 07:22:48;;;;;;;4.70;2.50;;;10.20;99.90;;;;;;5076273;28;20483;-82
2022/04/17 07:25:16;;;;;;;3.90;2.17;;;10.30;99.90;;;;;;5069812;28;20982;-82
2022/04/17 07:27:45;;;;;;;3.30;1.90;;;10.60;99.90;;;;;;5066806;28;20463;-82
2022/04/17 07:30:15;;;;;;;3.73;1.87;;;11.00;99.90;;;;;;5073805;28;20442;-81
2022/04/17 07:32:43;;;;;;;3.23;1.60;;;11.40;99.90;;;;;;5080918;28;20455;-82
2022/04/17 07:35:11;;;;;;;3.40;1.80;;;11.70;99.90;;;;;;5079638;28;20490;-80
2022/04/17 07:37:38;;;;;;;4.43;1.87;;;11.90;99.90;;;;;;5082102;28;20451;-80
2022/04/17 07:40:17;;;;;;;5.33;1.97;;;12.00;99.90;;;;;;5085508;28;20513;-81
2022/04/17 07:42:46;;;;;;;5.07;1.80;;;11.70;99.90;;;;;;5098703;28;20485;-82
2022/04/17 07:45:15;;;;;;;3.27;1.40;;;12.10;99.90;;;;;;5096565;28;20456;-81
2022/04/17 07:47:42;;;;;;;2.60;1.37;;;12.40;99.90;;;;;;5097462;28;20467;-80
2022/04/17 07:50:10;;;;;;;4.20;2.13;;;12.50;99.90;;;;;;5098023;28;20833;-82
2022/04/17 07:52:37;;;;;;;3.40;1.50;;;12.70;99.90;;;;;;5096168;28;20421;-81
2022/04/17 07:55:06;;;;;;;5.43;1.87;;;12.90;99.90;;;;;;5097208;28;20460;-81
2022/04/17 07:57:53;;;;;;;2.40;1.47;;;12.90;99.90;;;;;;5096973;28;20531;-82
2022/04/17 08:00:22;;;;;;;5.17;1.50;;;13.50;99.90;;;;;;5096731;28;20467;-82
2022/04/17 08:02:55;;;;;;;4.60;1.60;;;14.80;99.90;;;;;;5096690;28;20539;-83
2022/04/17 08:05:23;;;;;;;2.80;1.60;;;15.90;99.90;;;;;;5095774;28;20471;-82
2022/04/17 08:07:50;;;;;;;3.80;1.57;;;16.90;99.30;;;;;;5098329;28;20447;-82
2022/04/17 08:10:17;;;;;;;2.00;1.00;;;17.90;97.40;;;;;;5097482;28;20448;-82
2022/04/17 08:12:44;;;;;;;3.90;1.37;;;19.60;93.00;;;;;;5097571;28;20506;-83
2022/04/17 08:15:11;;;;;;;2.77;1.60;;;20.60;82.20;;;;;;5095325;28;20474;-83
2022/04/17 08:17:39;;;;;;;3.00;1.70;;;20.80;72.70;;;;;;5095527;28;20453;-82
2022/04/17 08:20:07;;;;;;;2.47;1.30;;;22.00;76.10;;;;;;5096049;28;20481;-82
2022/04/17 08:22:34;;;;;;;5.30;1.40;;;23.10;71.00;;;;;;5094781;28;20508;-83
2022/04/17 08:25:01;;;;;;;2.87;1.43;;;22.90;61.30;;;;;;5087017;28;20566;-81
2022/04/17 08:27:37;;;;;;;;;;;;;;;;;;;;;
2022/04/17 08:30:08;;;;;;;3.03;1.50;;;24.10;57.30;;;;;;5075196;28;20442;-81
2022/04/17 08:32:35;;;;;;;3.87;1.70;;;24.90;54.80;;;;;;5078153;28;20448;-82
2022/04/17 08:35:03;;;;;;;4.63;1.80;;;25.60;54.30;;;;;;5077156;28;20987;-82
2022/04/17 08:37:33;;;;;;;2.77;1.47;;;26.20;53.30;;;;;;5073130;28;20538;-83
2022/04/17 08:40:00;;;;;;;3.73;1.67;;;24.40;50.70;;;;;;5073196;28;20451;-81
2022/04/17 08:42:29;;;;;;;3.83;1.87;;;24.40;50.50;;;;;;5078850;28;21110;-80
2022/04/17 08:44:56;;;;;;;2.80;1.60;;;24.90;49.50;;;;;;5075500;28;20467;-81
2022/04/17 08:47:23;;;;;;;3.03;1.27;;;24.90;50.20;;;;;;5078745;28;20446;-80
2022/04/17 08:49:51;;;;;;;4.77;1.90;;;25.00;51.60;;;;;;5078549;28;21368;-82
2022/04/17 08:52:19;;;;;;;2.73;1.50;;;24.60;48.60;;;;;;5080555;28;20499;-81
2022/04/17 08:54:47;;;;;;;4.43;1.43;;;25.90;52.50;;;;;;5081788;28;20470;-79
2022/04/17 08:57:17;;;;;;;3.50;1.60;;;26.20;50.30;;;;;;5081169;28;20439;-80
2022/04/17 08:59:44;;;;;;;2.70;1.40;;;26.60;52.40;;;;;;5081558;28;20869;-81
2022/04/17 09:02:11;;;;;;;2.60;1.70;;;27.20;48.50;;;;;;5070261;28;20476;-80
2022/04/17 09:04:40;;;;;;;3.20;1.87;;;27.50;46.80;;;;;;5075711;28;20475;-80
2022/04/17 09:07:10;;;;;;;2.70;1.70;;;28.20;46.60;;;;;;5077914;28;20451;-82
2022/04/17 09:09:51;;;;;;;2.93;1.60;;;28.80;46.30;;;;;;5080259;28;20458;-81
2022/04/17 09:12:21;;;;;;;2.33;1.30;;;28.50;49.80;;;;;;5089276;28;20435;-79
2022/04/17 09:14:48;;;;;;;2.67;1.43;;;28.70;46.40;;;;;;5087306;28;20497;-81
2022/04/17 09:17:15;;;;;;;2.63;1.80;;;28.60;45.70;;;;;;5088927;28;20450;-80
2022/04/17 09:19:43;;;;;;;2.77;1.53;;;29.60;45.30;;;;;;5080240;28;20545;-81
2022/04/17 09:22:10;;;;;;;4.43;1.60;;;28.30;44.90;;;;;;5073673;28;20512;-82
2022/04/17 09:24:38;;;;;;;3.10;1.40;;;28.60;46.90;;;;;;5078115;28;20467;-81
2022/04/17 09:27:08;;;;;;;3.63;1.60;;;29.30;47.20;;;;;;5085367;28;20461;-81
2022/04/17 09:29:37;;;;;;;3.60;1.53;;;30.20;47.40;;;;;;5082090;28;21011;-81
2022/04/17 09:32:05;;;;;;;2.30;1.43;;;29.90;42.60;;;;;;5081192;28;20477;-81
2022/04/17 09:34:44;;;;;;;3.00;1.60;;;29.50;43.70;;;;;;5081099;28;20477;-82
2022/04/17 09:37:14;;;;;;;2.93;1.40;;;28.90;40.60;;;;;;5080840;28;20472;-81
2022/04/17 09:39:42;;;;;;;3.30;1.50;;;28.80;41.40;;;;;;5084318;28;20483;-80
2022/04/17 09:42:10;;;;;;;3.77;1.43;;;29.90;44.50;;;;;;5078852;28;20530;-81
2022/04/17 09:44:45;;;;;;;2.93;1.60;;;30.30;42.50;;;;;;5077298;28;20471;-81
2022/04/17 09:47:16;;;;;;;2.33;1.23;;;31.10;42.60;;;;;;5075220;28;20451;-80
2022/04/17 09:49:57;;;;;;;2.20;1.37;;;31.80;41.80;;;;;;5076087;28;20538;-81
2022/04/17 09:52:26;;;;;;;2.40;1.40;;;32.10;39.90;;;;;;5078617;28;20489;-81
2022/04/17 09:54:54;;;;;;;2.10;0.90;;;31.80;39.30;;;;;;5078693;28;20478;-82
2022/04/17 09:57:40;;;;;;;2.30;1.13;;;31.00;38.90;;;;;;5071009;28;20549;-80
2022/04/17 10:00:10;;;;;;;2.40;1.40;;;31.50;41.90;;;;;;5070625;28;21002;-80
2022/04/17 10:02:37;;;;;;;2.83;1.50;;;32.00;39.00;;;;;;5078607;28;20455;-82
2022/04/17 10:05:06;;;;;;;2.00;1.43;;;31.50;39.70;;;;;;5077174;28;20535;-81
2022/04/17 10:07:33;;;;;;;2.83;1.70;;;31.60;37.90;;;;;;5078888;28;20453;-81
2022/04/17 10:10:00;;;;;;;2.00;1.20;;;31.00;39.70;;;;;;5076038;28;20467;-81
2022/04/17 10:12:27;;;;;;;2.40;1.50;;;31.30;42.10;;;;;;5074425;28;20569;-82
2022/04/17 10:14:57;;;;;;;2.73;1.20;;;33.00;37.80;;;;;;5070695;28;20485;-80
2022/04/17 10:17:24;;;;;;;2.40;1.40;;;33.60;37.80;;;;;;5071722;28;20458;-78
2022/04/17 10:19:52;;;;;;;3.17;1.30;;;33.40;38.60;;;;;;5076923;28;20451;-81
2022/04/17 10:22:21;;;;;;;3.33;1.67;;;33.40;36.60;;;;;;5072881;28;20459;-80
2022/04/17 10:24:55;;;;;;;3.27;1.90;;;32.80;36.80;;;;;;5082188;28;20481;-79
2022/04/17 10:27:25;;;;;;;2.10;1.10;;;32.30;39.20;;;;;;5078752;28;20460;-80
2022/04/17 10:29:58;;;;;;;2.93;1.33;;;32.50;38.40;;;;;;5079635;28;20472;-80
2022/04/17 10:33:09;;;;;;;2.27;1.33;;;33.20;34.10;;;;;;5075876;28;20451;-80
2022/04/17 10:36:07;;;;;;;2.70;1.60;;;33.60;38.40;;;;;;5075763;28;20485;-81
2022/04/17 10:38:46;;;;;;;2.73;1.80;;;33.90;39.00;;;;;;5082911;28;20451;-80
2022/04/17 10:41:14;;;;;;;3.00;1.63;;;34.20;36.20;;;;;;5079523;28;20459;-81
2022/04/17 10:43:58;;;;;;;2.40;1.80;;;33.60;34.50;;;;;;5068931;28;20462;-80
2022/04/17 10:46:27;;;;;;;2.77;1.87;;;34.20;37.20;;;;;;5078717;28;20443;-82
2022/04/17 10:48:55;;;;;;;2.90;1.60;;;34.40;37.40;;;;;;5079218;28;20494;-81
2022/04/17 10:51:24;;;;;;;3.60;1.97;;;34.80;37.70;;;;;;5077446;28;20450;-81
2022/04/17 10:53:58;;;;;;;2.30;1.60;;;34.90;38.30;;;;;;5077962;28;21018;-82
2022/04/17 10:56:26;;;;;;;2.57;1.50;;;34.40;37.00;;;;;;5077550;28;20458;-82
2022/04/17 10:58:55;;;;;;;2.90;2.00;;;34.50;34.00;;;;;;5080168;28;20494;-81
2022/04/17 11:01:52;;;;;;;3.60;2.10;;;34.40;33.00;;;;;;5079864;28;20913;-80
2022/04/17 11:04:21;;;;;;;2.73;1.67;;;34.30;36.50;;;;;;5070515;28;20467;-82
2022/04/17 11:06:53;;;;;;;3.20;2.20;;;34.80;35.30;;;;;;5080044;28;20483;-82
2022/04/17 11:09:21;;;;;;;2.43;1.60;;;35.40;36.70;;;;;;5060854;28;20804;-83
2022/04/17 11:11:48;;;;;;;3.47;1.67;;;36.30;37.00;;;;;;5071870;28;20442;-82
2022/04/17 11:14:18;;;;;;;2.77;1.63;;;36.50;37.60;;;;;;5079136;28;20520;-79
2022/04/17 11:16:54;;;;;;;3.00;2.00;;;35.70;35.90;;;;;;5080768;28;20451;-80
2022/04/17 11:19:23;;;;;;;3.33;1.53;;;36.60;33.80;;;;;;5059745;28;20816;-80
2022/04/17 11:21:51;;;;;;;5.80;1.60;;;35.90;99.90;;;;;;5075922;28;20457;-81
2022/04/17 11:24:19;;;;;;;2.93;1.43;;;35.60;99.90;;;;;;5078506;28;20477;-81
2022/04/17 11:27:11;;;;;;;3.43;2.10;;;36.10;99.90;;;;;;5078868;28;20485;-81
2022/04/17 11:29:43;;;;;;;2.00;1.03;;;36.90;99.90;;;;;;5078372;28;20455;-78
2022/04/17 11:32:47;;;;;;;2.70;1.70;;;36.40;99.90;;;;;;5059306;28;20460;-81
2022/04/17 11:35:20;;;;;;;3.10;1.47;;;35.30;99.90;;;;;;5073413;28;20471;-81
2022/04/17 11:37:54;;;;;;;4.30;1.80;;;35.50;99.90;;;;;;5078534;28;20447;-81
2022/04/17 11:40:23;;;;;;;2.87;1.23;;;36.10;99.90;;;;;;5078778;28;20486;-81
2022/04/17 11:42:52;;;;;;;3.30;1.50;;;36.30;99.90;;;;;;5078615;28;20453;-80
2022/04/17 11:45:20;;;;;;;5.40;1.43;;;36.10;99.90;;;;;;5079278;28;20479;-80
2022/04/17 11:47:51;;;;;;;2.77;1.70;;;35.40;99.90;;;;;;5079964;28;20443;-81
2022/04/17 11:50:23;;;;;;;2.57;1.30;;;35.40;99.90;;;;;;5079088;28;20511;-80
2022/04/17 11:55:35;;;;;;;3.00;1.30;;;36.90;99.90;;;;;;5105634;28;20443;-81
2022/04/17 11:58:03;;;;;;;2.87;1.73;;;36.70;99.90;;;;;;5104553;28;20482;-81
2022/04/17 12:00:31;;;;;;;3.70;2.07;;;37.70;99.90;;;;;;5100284;28;20461;-82
2022/04/17 12:03:01;;;;;;;4.10;2.27;;;37.10;99.90;;;;;;5116327;28;20549;-79
2022/04/17 12:05:30;;;;;;;4.73;1.90;;;35.80;99.90;;;;;;5105042;28;20442;-80
2022/04/17 12:08:01;;;;;;;4.53;2.30;;;36.70;99.90;;;;;;5104178;28;20488;-81
2022/04/17 12:10:28;;;;;;;4.03;2.40;;;36.20;99.90;;;;;;5108313;28;20442;-80
2022/04/17 12:12:55;;;;;;;3.20;2.17;;;36.30;99.90;;;;;;5103633;28;20488;-80
2022/04/17 12:15:22;;;;;;;2.40;1.70;;;35.70;99.90;;;;;;5102714;28;20556;-80
2022/04/17 12:17:59;;;;;;;2.83;1.97;;;36.50;99.90;;;;;;5103739;28;20454;-81
2022/04/17 12:20:27;;;;;;;3.50;2.00;;;36.30;99.90;;;;;;5102976;28;20434;-80
2022/04/17 12:22:55;;;;;;;3.20;2.40;;;36.30;99.90;;;;;;5103617;28;20478;-80
2022/04/17 12:25:24;;;;;;;3.70;1.90;;;36.90;99.90;;;;;;5099025;28;20458;-82
2022/04/17 12:27:52;;;;;;;3.70;1.83;;;37.10;99.90;;;;;;5103174;28;20470;-78
2022/04/17 12:30:20;;;;;;;3.53;2.20;;;37.10;99.90;;;;;;5106955;28;20470;-80
2022/04/17 12:32:47;;;;;;;2.77;2.10;;;38.90;99.90;;;;;;5109597;28;20452;-79
2022/04/17 12:35:23;;;;;;;3.23;2.13;;;38.30;99.90;;;;;;5110298;28;20442;-79
2022/04/17 12:37:51;;;;;;;4.40;1.80;;;39.00;99.90;;;;;;5109438;28;20509;-80
2022/04/17 12:40:22;;;;;;;3.40;2.03;;;36.80;99.90;;;;;;5107283;28;20430;-79
2022/04/17 12:42:50;;;;;;;3.30;1.93;;;36.00;99.90;;;;;;5103891;28;20466;-79
2022/04/17 12:45:25;;;;;;;3.27;2.43;;;35.90;99.90;;;;;;5104655;28;20889;-81
2022/04/17 12:48:02;;;;;;;3.50;1.93;;;35.60;99.90;;;;;;5104398;28;20510;-81
2022/04/17 12:50:29;;;;;;;3.17;2.20;;;36.30;99.90;;;;;;5099221;28;20442;-82
2022/04/17 12:52:58;;;;;;;2.83;2.10;;;36.30;99.90;;;;;;5098352;28;20500;-82
2022/04/17 12:55:31;;;;;;;3.03;2.13;;;35.80;99.90;;;;;;5099345;28;20442;-80
2022/04/17 12:57:58;;;;;;;2.60;1.80;;;36.30;99.90;;;;;;5094647;28;20454;-81
2022/04/17 13:00:27;;;;;;;3.80;2.93;;;36.90;99.90;;;;;;5099143;28;20449;-81
2022/04/17 13:03:09;;;;;;;3.23;2.20;;;35.90;99.90;;;;;;5099270;28;20548;-80
2022/04/17 13:05:36;;;;;;;4.20;2.33;;;36.30;99.90;;;;;;5099682;28;20449;-81
2022/04/17 13:08:09;;;;;;;5.07;2.43;;;36.20;99.90;;;;;;5098576;28;20536;-81
2022/04/17 13:10:38;;;;;;;4.60;2.63;;;36.30;99.90;;;;;;5099541;28;20442;-79
2022/04/17 13:13:05;;;;;;;4.33;2.40;;;36.90;99.90;;;;;;5098374;28;20473;-82